Time,TemperatureF,DewpointF,PressureIn,WindDirection,WindDirectionDegrees,WindSpeedMPH,WindSpeedGustMPH,Humidity,HourlyPrecipIn,Conditions,Clouds,dailyrainin,SolarRadiationWatts/m^2,SoftwareType,DateUTC
2013-03-11 00:02:00,27.0,20.0,-100.00,WSW,251,2.0,13.0,76,0.00,,,0.00,0.000000,,2013-03-11 06:02:00,
2013-03-11 00:12:00,27.0,20.0,-100.00,WSW,251,2.0,13.0,76,0.00,,,0.00,0.000000,,2013-03-11 06:12:00,
2013-03-11 00:22:00,27.0,20.0,-100.00,WSW,251,2.0,13.0,76,0.00,,,0.00,0.000000,,2013-03-11 06:22:00,
2013-03-11 00:32:00,27.0,20.0,-100.00,WSW,251,2.0,13.0,76,0.00,,,0.00,0.000000,,2013-03-11 06:32:00,
2013-03-11 00:53:00,28.0,22.0,-100.00,SW,217,5.0,11.0,78,0.00,,,0.00,0.000000,,2013-03-11 06:53:00,
2013-03-11 01:02:00,28.0,22.0,-100.00,SW,217,5.0,11.0,78,0.00,,,0.00,0.000000,,2013-03-11 07:02:00,
2013-03-11 01:12:00,28.0,22.0,-100.00,SW,217,5.0,11.0,78,0.00,,,0.00,0.000000,,2013-03-11 07:12:00,
2013-03-11 01:21:00,28.0,22.0,-100.00,SW,217,5.0,11.0,78,0.00,,,0.00,0.000000,,2013-03-11 07:21:00,
2013-03-11 01:32:00,28.0,22.0,-100.00,SW,217,5.0,11.0,78,0.00,,,0.00,0.000000,,2013-03-11 07:32:00,
2013-03-11 02:02:00,28.0,22.0,-100.00,SW,214,6.0,13.0,79,0.00,,,0.00,0.000000,,2013-03-11 08:02:00,
2013-03-11 02:12:00,28.0,22.0,-100.00,SW,214,6.0,13.0,79,0.00,,,0.00,0.000000,,2013-03-11 08:12:00,
2013-03-11 02:22:00,28.0,22.0,-100.00,SW,214,6.0,13.0,79,0.00,,,0.00,0.000000,,2013-03-11 08:22:00,
2013-03-11 02:32:00,28.0,22.0,-100.00,SW,214,6.0,13.0,79,0.00,,,0.00,0.000000,,2013-03-11 08:32:00,
2013-03-11 02:52:00,28.0,22.0,-100.00,SW,215,4.0,13.0,78,0.00,,,0.00,0.000000,,2013-03-11 08:52:00,
2013-03-11 03:02:00,28.0,22.0,-100.00,SW,215,4.0,13.0,78,0.00,,,0.00,0.000000,,2013-03-11 09:02:00,
2013-03-11 03:12:00,28.0,22.0,-100.00,SW,215,4.0,13.0,78,0.00,,,0.00,0.000000,,2013-03-11 09:12:00,
2013-03-11 03:22:00,28.0,22.0,-100.00,SW,215,4.0,13.0,78,0.00,,,0.00,0.000000,,2013-03-11 09:22:00,
2013-03-11 03:32:00,28.0,22.0,-100.00,SW,215,4.0,13.0,78,0.00,,,0.00,0.000000,,2013-03-11 09:32:00,
2013-03-11 04:02:00,28.0,20.0,-100.00,SW,217,4.0,13.0,73,0.00,,,0.00,0.000000,,2013-03-11 10:02:00,
2013-03-11 04:12:00,28.0,20.0,-100.00,SW,217,4.0,13.0,73,0.00,,,0.00,0.000000,,2013-03-11 10:12:00,
2013-03-11 04:21:00,28.0,20.0,-100.00,SW,217,4.0,13.0,73,0.00,,,0.00,0.000000,,2013-03-11 10:21:00,
2013-03-11 04:32:00,28.0,20.0,-100.00,SW,217,4.0,13.0,73,0.00,,,0.00,0.000000,,2013-03-11 10:32:00,
2013-03-11 05:02:00,27.0,19.0,-100.00,SW,221,4.0,11.0,71,0.00,,,0.00,0.000000,,2013-03-11 11:02:00,
2013-03-11 05:12:00,27.0,19.0,-100.00,SW,221,4.0,11.0,71,0.00,,,0.00,0.000000,,2013-03-11 11:12:00,
2013-03-11 05:22:00,27.0,19.0,-100.00,SW,221,4.0,11.0,71,0.00,,,0.00,0.000000,,2013-03-11 11:22:00,
2013-03-11 05:32:00,27.0,19.0,-100.00,SW,221,4.0,11.0,71,0.00,,,0.00,0.000000,,2013-03-11 11:32:00,
2013-03-11 06:02:00,26.0,20.0,-100.00,SW,221,4.0,11.0,78,0.00,,,-99.99,0.000000,,2013-03-11 12:02:00,
2013-03-11 06:12:00,26.0,20.0,-100.00,SW,221,4.0,11.0,78,0.00,,,-99.99,0.000000,,2013-03-11 12:12:00,
2013-03-11 06:22:00,26.0,20.0,-100.00,SW,221,4.0,11.0,78,0.00,,,-99.99,0.000000,,2013-03-11 12:22:00,
2013-03-11 06:32:00,26.0,20.0,-100.00,SW,221,4.0,11.0,78,0.00,,,-99.99,0.000000,,2013-03-11 12:32:00,
2013-03-11 07:02:00,26.0,21.0,-100.00,SW,219,4.0,11.0,80,0.00,,,-99.99,0.000000,,2013-03-11 13:02:00,
2013-03-11 07:12:00,26.0,21.0,-100.00,SW,219,4.0,11.0,80,0.00,,,-99.99,0.000000,,2013-03-11 13:12:00,
2013-03-11 07:22:00,26.0,21.0,-100.00,SW,219,4.0,11.0,80,0.00,,,-99.99,0.000000,,2013-03-11 13:22:00,
2013-03-11 07:32:00,26.0,21.0,-100.00,SW,219,4.0,11.0,80,0.00,,,-99.99,0.000000,,2013-03-11 13:32:00,
2013-03-11 08:02:00,26.0,21.0,-100.00,SW,229,4.0,11.0,81,0.00,,,0.00,0.000000,,2013-03-11 14:02:00,
2013-03-11 08:12:00,26.0,21.0,-100.00,SW,229,4.0,11.0,81,0.00,,,0.00,0.000000,,2013-03-11 14:12:00,
2013-03-11 08:22:00,26.0,21.0,-100.00,SW,229,4.0,11.0,81,0.00,,,0.00,0.000000,,2013-03-11 14:22:00,
2013-03-11 08:32:00,26.0,21.0,-100.00,SW,229,4.0,11.0,81,0.00,,,0.00,0.000000,,2013-03-11 14:32:00,
2013-03-11 09:02:00,25.0,22.0,-100.00,SW,224,4.0,11.0,89,0.00,,,0.00,4.000000,,2013-03-11 15:02:00,
2013-03-11 09:12:00,25.0,22.0,-100.00,SW,224,4.0,11.0,89,0.00,,,0.00,4.000000,,2013-03-11 15:12:00,
2013-03-11 09:22:00,25.0,22.0,-100.00,SW,224,4.0,11.0,89,0.00,,,0.00,4.000000,,2013-03-11 15:22:00,
2013-03-11 09:32:00,25.0,22.0,-100.00,SW,224,4.0,11.0,89,0.00,,,0.00,4.000000,,2013-03-11 15:32:00,
2013-03-11 10:02:00,27.0,23.0,-100.00,SW,219,5.0,12.0,83,0.02,,,0.02,27.000000,,2013-03-11 16:02:00,
2013-03-11 10:12:00,27.0,23.0,-100.00,SW,219,5.0,12.0,83,0.02,,,0.02,27.000000,,2013-03-11 16:12:00,
2013-03-11 10:22:00,27.0,23.0,-100.00,SW,219,5.0,12.0,83,0.02,,,0.02,27.000000,,2013-03-11 16:22:00,
2013-03-11 10:32:00,27.0,23.0,-100.00,SW,219,5.0,12.0,83,0.02,,,0.02,27.000000,,2013-03-11 16:32:00,
2013-03-11 10:52:00,32.0,24.0,-100.00,WSW,240,3.0,11.0,73,0.00,,,-99.99,52.000000,,2013-03-11 16:52:00,
2013-03-11 11:02:00,32.0,24.0,-100.00,WSW,240,3.0,11.0,73,0.00,,,-99.99,52.000000,,2013-03-11 17:02:00,
2013-03-11 11:13:00,32.0,24.0,-100.00,WSW,240,3.0,11.0,73,0.00,,,-99.99,52.000000,,2013-03-11 17:13:00,
2013-03-11 11:24:00,32.0,24.0,-100.00,WSW,240,3.0,11.0,73,0.00,,,-99.99,52.000000,,2013-03-11 17:24:00,
2013-03-11 11:33:00,32.0,24.0,-100.00,WSW,240,3.0,11.0,73,0.00,,,-99.99,52.000000,,2013-03-11 17:33:00,
2013-03-11 12:02:00,36.0,22.0,-100.00,SW,229,7.0,15.0,56,0.00,,,-99.99,328.000000,,2013-03-11 18:02:00,
2013-03-11 12:12:00,36.0,22.0,-100.00,SW,229,7.0,15.0,56,0.00,,,-99.99,328.000000,,2013-03-11 18:12:00,
2013-03-11 12:22:00,36.0,22.0,-100.00,SW,229,7.0,15.0,56,0.00,,,-99.99,328.000000,,2013-03-11 18:22:00,
2013-03-11 12:32:00,36.0,22.0,-100.00,SW,229,7.0,15.0,56,0.00,,,-99.99,328.000000,,2013-03-11 18:32:00,
2013-03-11 13:02:00,37.0,20.0,-100.00,WSW,238,6.0,13.0,49,0.00,,,-99.99,176.000000,,2013-03-11 19:02:00,
2013-03-11 13:12:00,37.0,20.0,-100.00,WSW,238,6.0,13.0,49,0.00,,,-99.99,176.000000,,2013-03-11 19:12:00,
2013-03-11 13:22:00,37.0,20.0,-100.00,WSW,238,6.0,13.0,49,0.00,,,-99.99,176.000000,,2013-03-11 19:22:00,
2013-03-11 13:32:00,37.0,20.0,-100.00,WSW,238,6.0,13.0,49,0.00,,,-99.99,176.000000,,2013-03-11 19:32:00,
2013-03-11 14:02:00,41.0,15.0,-100.00,West,270,5.0,16.0,35,0.00,,,0.02,296.000000,,2013-03-11 20:02:00,
2013-03-11 14:12:00,41.0,15.0,-100.00,West,270,5.0,16.0,35,0.00,,,0.02,296.000000,,2013-03-11 20:12:00,
2013-03-11 14:22:00,41.0,15.0,-100.00,West,270,5.0,16.0,35,0.00,,,0.02,296.000000,,2013-03-11 20:22:00,
2013-03-11 14:32:00,41.0,15.0,-100.00,West,270,5.0,16.0,35,0.00,,,0.02,296.000000,,2013-03-11 20:32:00,
2013-03-11 15:02:00,41.0,17.0,-100.00,NW,315,7.0,19.0,38,0.00,,,0.02,615.000000,,2013-03-11 21:02:00,
2013-03-11 15:12:00,41.0,17.0,-100.00,NW,315,7.0,19.0,38,0.00,,,0.02,615.000000,,2013-03-11 21:12:00,
2013-03-11 15:22:00,41.0,17.0,-100.00,NW,315,7.0,19.0,38,0.00,,,0.02,615.000000,,2013-03-11 21:22:00,
2013-03-11 15:32:00,41.0,17.0,-100.00,NW,315,7.0,19.0,38,0.00,,,0.02,615.000000,,2013-03-11 21:32:00,
2013-03-11 15:53:00,43.0,10.0,-100.00,West,262,6.0,17.0,25,0.00,,,0.02,656.000000,,2013-03-11 21:53:00,
2013-03-11 16:02:00,43.0,10.0,-100.00,West,262,6.0,17.0,25,0.00,,,0.02,656.000000,,2013-03-11 22:02:00,
2013-03-11 16:12:00,43.0,10.0,-100.00,West,262,6.0,17.0,25,0.00,,,0.02,656.000000,,2013-03-11 22:12:00,
2013-03-11 16:22:00,43.0,10.0,-100.00,West,262,6.0,17.0,25,0.00,,,0.02,656.000000,,2013-03-11 22:22:00,
2013-03-11 16:32:00,43.0,10.0,-100.00,West,262,6.0,17.0,25,0.00,,,0.02,656.000000,,2013-03-11 22:32:00,
2013-03-11 17:02:00,39.0,9.0,-100.00,WSW,257,7.0,16.0,28,0.00,,,0.02,239.000000,,2013-03-11 23:02:00,
2013-03-11 17:12:00,39.0,9.0,-100.00,WSW,257,7.0,16.0,28,0.00,,,0.02,239.000000,,2013-03-11 23:12:00,
2013-03-11 17:22:00,39.0,9.0,-100.00,WSW,257,7.0,16.0,28,0.00,,,0.02,239.000000,,2013-03-11 23:22:00,
2013-03-11 17:32:00,39.0,9.0,-100.00,WSW,257,7.0,16.0,28,0.00,,,0.02,239.000000,,2013-03-11 23:32:00,
2013-03-11 18:02:00,36.0,8.0,-100.00,West,279,5.0,13.0,31,0.00,,,0.02,282.000000,,2013-03-12 00:02:00,
2013-03-11 18:12:00,36.0,8.0,-100.00,West,279,5.0,13.0,31,0.00,,,0.02,282.000000,,2013-03-12 00:12:00,
2013-03-11 18:22:00,36.0,8.0,-100.00,West,279,5.0,13.0,31,0.00,,,0.02,282.000000,,2013-03-12 00:22:00,
2013-03-11 18:32:00,36.0,8.0,-100.00,West,279,5.0,13.0,31,0.00,,,0.02,282.000000,,2013-03-12 00:32:00,
2013-03-11 19:02:00,34.0,7.0,-100.00,West,274,3.0,12.0,32,0.00,,,0.02,48.000000,,2013-03-12 01:02:00,
2013-03-11 19:12:00,34.0,7.0,-100.00,West,274,3.0,12.0,32,0.00,,,0.02,48.000000,,2013-03-12 01:12:00,
2013-03-11 19:22:00,34.0,7.0,-100.00,West,274,3.0,12.0,32,0.00,,,0.02,48.000000,,2013-03-12 01:22:00,
2013-03-11 19:32:00,34.0,7.0,-100.00,West,274,3.0,12.0,32,0.00,,,0.02,48.000000,,2013-03-12 01:32:00,
2013-03-11 20:02:00,28.0,9.0,-100.00,SSW,212,2.0,8.0,44,0.00,,,0.02,17.000000,,2013-03-12 02:02:00,
2013-03-11 20:12:00,28.0,9.0,-100.00,SSW,212,2.0,8.0,44,0.00,,,0.02,17.000000,,2013-03-12 02:12:00,
2013-03-11 20:22:00,28.0,9.0,-100.00,SSW,212,2.0,8.0,44,0.00,,,0.02,17.000000,,2013-03-12 02:22:00,
2013-03-11 20:32:00,28.0,9.0,-100.00,SSW,212,2.0,8.0,44,0.00,,,0.02,17.000000,,2013-03-12 02:32:00,
2013-03-11 21:02:00,24.0,9.0,-100.00,SW,222,2.0,4.0,52,0.00,,,0.02,0.000000,,2013-03-12 03:02:00,
2013-03-11 21:12:00,24.0,9.0,-100.00,SW,222,2.0,4.0,52,0.00,,,0.02,0.000000,,2013-03-12 03:12:00,
2013-03-11 21:22:00,24.0,9.0,-100.00,SW,222,2.0,4.0,52,0.00,,,0.02,0.000000,,2013-03-12 03:22:00,
2013-03-11 21:32:00,24.0,9.0,-100.00,SW,222,2.0,4.0,52,0.00,,,0.02,0.000000,,2013-03-12 03:32:00,
2013-03-11 22:02:00,22.0,10.0,-100.00,SW,228,2.0,4.0,59,0.00,,,-99.99,0.000000,,2013-03-12 04:02:00,
2013-03-11 22:12:00,22.0,10.0,-100.00,SW,228,2.0,4.0,59,0.00,,,-99.99,0.000000,,2013-03-12 04:12:00,
2013-03-11 22:22:00,22.0,10.0,-100.00,SW,228,2.0,4.0,59,0.00,,,-99.99,0.000000,,2013-03-12 04:22:00,
2013-03-11 22:32:00,22.0,10.0,-100.00,SW,228,2.0,4.0,59,0.00,,,-99.99,0.000000,,2013-03-12 04:32:00,
2013-03-11 23:02:00,18.0,8.0,-100.00,SSE,168,0.0,3.0,63,0.00,,,0.02,0.000000,,2013-03-12 05:02:00,
2013-03-11 23:12:00,18.0,8.0,-100.00,SSE,168,0.0,3.0,63,0.00,,,0.02,0.000000,,2013-03-12 05:12:00,
2013-03-11 23:21:00,18.0,8.0,-100.00,SSE,168,0.0,3.0,63,0.00,,,0.02,0.000000,,2013-03-12 05:21:00,
2013-03-11 23:32:00,18.0,8.0,-100.00,SSE,168,0.0,3.0,63,0.00,,,0.02,0.000000,,2013-03-12 05:32:00,